Terminal Aerodrome Forecast
Issued by NWS Tampa Bay Area, FL

Home | Current Version | Previous Version | Text Only | Print | Product List | Glossary On
Versions: 1 2 3 4 5 6 7 8 9 10 11 12 13 14 15
000
FTUS42 KTBW 181600 AAA
TAFFMY
TAF AMD
KFMY 181651Z 1817/1912 36004KT P6SM BKN015
      TEMPO 1817/1819 SCT015
     FM181900 33006KT P6SM SCT025 SCT250
     FM190200 VRB03KT P6SM SCT250=

USA.gov is the U.S. government's official web portal to all federal, state and local government web resources and services.